Terminal Aerodrome Forecast
Issued by NWS Bismarck, ND

Home | Current Version | Previous Version | Text Only | Print | Product List | Glossary Off
Versions: 1 2 3 4 5 6 7 8 9 10 11 12 13 14 15 16 17 18

000
FTUS43 KBIS 171720
TAFBIS
TAF
KBIS 171720Z 1718/1818 21008KT P6SM FEW050 SCT250
     FM172300 18007KT P6SM FEW090 SCT200
     FM180600 12005KT P6SM SCT060 SCT200
     FM181500 18004KT P6SM FEW080 SCT200=

USA.gov is the U.S. government's official web portal to all federal, state and local government web resources and services.